Time;durP1;ratioP1;P1;durP2;ratioP2;P2;SDS_P1;SDS_P2;PMS_P1;PMS_P2;Temp;Humidity;BMP_temperature;BMP_pressure;BME280_temperature;BME280_humidity;BME280_pressure;Samples;Min_cycle;Max_cycle;Signal;HPM_P1;HPM_P2
2022/01/31 00:02:54;;;;;;;14.70;6.93;;;3.60;88.10;;;;;;6264454;28;20065;-84
2022/01/31 00:05:56;;;;;;;20.88;7.05;;;3.70;87.80;;;;;;6264233;28;20524;-82
2022/01/31 00:08:57;;;;;;;17.27;6.40;;;3.80;87.60;;;;;;6263446;28;20077;-83
2022/01/31 00:12:04;;;;;;;19.50;7.00;;;4.00;87.30;;;;;;6262030;28;20430;-80
2022/01/31 00:15:07;;;;;;;27.52;7.20;;;4.00;87.00;;;;;;6261571;28;20533;-81
2022/01/31 00:18:09;;;;;;;24.58;6.47;;;4.10;87.00;;;;;;6261869;28;20111;-81
2022/01/31 00:21:11;;;;;;;18.15;7.43;;;4.10;86.70;;;;;;6263051;28;20645;-82
2022/01/31 00:24:13;;;;;;;32.78;7.80;;;4.20;86.60;;;;;;6261920;28;20046;-81
2022/01/31 00:27:16;;;;;;;20.65;7.43;;;4.20;86.50;;;;;;6260831;28;20056;-81
2022/01/31 00:30:18;;;;;;;23.88;7.93;;;4.20;86.20;;;;;;6263734;28;20061;-82
2022/01/31 00:33:20;;;;;;;25.35;7.82;;;4.30;86.20;;;;;;6262539;28;20045;-81
2022/01/31 00:36:21;;;;;;;22.55;7.32;;;4.20;86.00;;;;;;6260076;28;20466;-82
2022/01/31 00:39:23;;;;;;;20.52;7.63;;;4.20;86.10;;;;;;6262928;28;20045;-85
2022/01/31 00:42:28;;;;;;;32.58;7.07;;;4.20;86.20;;;;;;6262175;28;20041;-83
2022/01/31 00:45:32;;;;;;;21.73;7.22;;;4.20;86.50;;;;;;6261466;28;20045;-82
2022/01/31 00:48:40;;;;;;;22.45;7.80;;;4.10;86.50;;;;;;6262552;28;20538;-81
2022/01/31 00:51:41;;;;;;;23.42;7.07;;;4.20;86.60;;;;;;6262231;28;20053;-82
2022/01/31 00:54:43;;;;;;;23.98;7.78;;;4.30;86.60;;;;;;6262291;28;20051;-82
2022/01/31 00:57:46;;;;;;;20.08;7.53;;;4.30;86.20;;;;;;6249312;28;20054;-82
2022/01/31 01:00:48;;;;;;;18.13;7.57;;;4.30;86.20;;;;;;6254901;28;20073;-82
2022/01/31 01:03:50;;;;;;;22.25;7.38;;;4.40;86.20;;;;;;6260590;28;20128;-82
2022/01/31 01:06:51;;;;;;;30.80;8.75;;;4.40;86.20;;;;;;6262310;28;20136;-85
2022/01/31 01:09:53;;;;;;;15.93;6.82;;;4.40;86.20;;;;;;6261312;28;20050;-82
2022/01/31 01:12:56;;;;;;;28.08;8.35;;;4.30;86.20;;;;;;6257393;28;20084;-81
2022/01/31 01:15:58;;;;;;;22.45;7.55;;;4.30;86.40;;;;;;6260152;28;20129;-84
2022/01/31 01:19:00;;;;;;;22.25;8.00;;;4.20;86.70;;;;;;6260939;28;20041;-81
2022/01/31 01:22:02;;;;;;;16.42;7.55;;;4.20;86.90;;;;;;6263771;28;20470;-84
2022/01/31 01:25:06;;;;;;;20.83;7.63;;;4.20;87.00;;;;;;6264143;28;20068;-82
2022/01/31 01:28:09;;;;;;;20.48;6.40;;;4.20;87.00;;;;;;6263539;28;20052;-81
2022/01/31 01:31:11;;;;;;;14.65;6.13;;;4.10;87.00;;;;;;6264772;28;20045;-81
2022/01/31 01:34:12;;;;;;;12.73;5.25;;;4.10;87.80;;;;;;6264534;28;20159;-81
2022/01/31 01:37:14;;;;;;;10.18;5.43;;;4.00;87.20;;;;;;6263277;28;20129;-81
2022/01/31 01:40:16;;;;;;;11.80;4.97;;;4.00;87.50;;;;;;6262506;28;20056;-82
2022/01/31 01:43:19;;;;;;;21.10;6.60;;;4.00;87.60;;;;;;6264931;28;20073;-81
2022/01/31 01:46:21;;;;;;;17.38;4.25;;;4.00;87.70;;;;;;6262881;28;20053;-81
2022/01/31 01:49:23;;;;;;;17.08;4.63;;;4.00;87.80;;;;;;6266357;28;20111;-81
2022/01/31 01:52:25;;;;;;;10.15;5.22;;;3.90;88.20;;;;;;6265138;28;20054;-82
2022/01/31 01:55:27;;;;;;;10.00;4.53;;;3.90;88.40;;;;;;6257184;28;20041;-81
2022/01/31 01:58:38;;;;;;;9.52;4.22;;;4.00;88.40;;;;;;6264668;28;20053;-81
2022/01/31 02:01:40;;;;;;;17.27;5.20;;;4.10;88.40;;;;;;6258422;28;20046;-81
2022/01/31 02:04:43;;;;;;;26.70;5.05;;;4.10;88.30;;;;;;6265157;28;20052;-81
2022/01/31 02:07:46;;;;;;;17.08;4.55;;;4.20;88.10;;;;;;6261224;28;20041;-82
2022/01/31 02:10:48;;;;;;;10.48;4.53;;;4.20;88.10;;;;;;6271356;28;20045;-79
2022/01/31 02:13:51;;;;;;;14.90;4.63;;;4.30;88.20;;;;;;6272665;28;20057;-83
2022/01/31 02:16:54;;;;;;;15.70;4.55;;;4.20;88.20;;;;;;6276840;28;20033;-83
2022/01/31 02:19:55;;;;;;;11.18;4.57;;;4.20;88.40;;;;;;6274761;28;20038;-84
2022/01/31 02:22:59;;;;;;;17.27;4.55;;;4.20;88.50;;;;;;6269077;28;20057;-84
2022/01/31 02:26:03;;;;;;;22.20;4.55;;;4.30;88.30;;;;;;6269023;28;20049;-83
2022/01/31 02:29:08;;;;;;;14.65;4.15;;;4.40;88.40;;;;;;6268954;28;20068;-83
2022/01/31 02:32:11;;;;;;;16.52;5.28;;;4.30;88.30;;;;;;6268409;28;20046;-84
2022/01/31 02:35:13;;;;;;;11.45;4.00;;;4.40;88.20;;;;;;6266385;28;20064;-84
2022/01/31 02:38:16;;;;;;;16.63;4.57;;;4.50;87.90;;;;;;6268063;28;20053;-83
2022/01/31 02:41:18;;;;;;;18.17;3.28;;;4.60;87.70;;;;;;6266676;28;20109;-84
2022/01/31 02:44:21;;;;;;;13.77;3.30;;;4.60;87.30;;;;;;6266081;28;20136;-83
2022/01/31 02:47:25;;;;;;;7.18;2.88;;;4.80;86.90;;;;;;6265672;28;20380;-83
2022/01/31 02:50:27;;;;;;;12.82;3.20;;;4.90;86.30;;;;;;6265503;28;20656;-83
2022/01/31 02:53:36;;;;;;;16.98;3.72;;;5.00;86.50;;;;;;6264575;28;20114;-83
2022/01/31 02:56:40;;;;;;;14.48;2.97;;;5.10;85.80;;;;;;6261318;28;20046;-82
2022/01/31 02:59:42;;;;;;;14.18;2.42;;;5.20;84.50;;;;;;6257402;28;20045;-83
2022/01/31 03:02:44;;;;;;;7.32;2.35;;;5.30;84.10;;;;;;6260246;28;20041;-82
2022/01/31 03:05:45;;;;;;;7.93;2.88;;;5.40;83.60;;;;;;6261484;28;20578;-83
2022/01/31 03:08:48;;;;;;;16.13;2.45;;;5.50;83.20;;;;;;6260990;28;20053;-85
2022/01/31 03:11:51;;;;;;;10.10;2.75;;;5.50;82.90;;;;;;6259475;28;20061;-84
2022/01/31 03:14:52;;;;;;;10.60;2.30;;;5.50;82.40;;;;;;6259654;28;20045;-83
2022/01/31 03:17:54;;;;;;;7.43;2.05;;;5.60;82.00;;;;;;6260253;28;20471;-83
2022/01/31 03:20:56;;;;;;;13.75;2.78;;;5.60;81.80;;;;;;6261003;28;20052;-83
2022/01/31 03:23:59;;;;;;;12.18;2.55;;;5.60;81.40;;;;;;6261003;28;20096;-83
2022/01/31 03:27:02;;;;;;;14.75;2.80;;;5.70;81.20;;;;;;6259484;28;20041;-83
2022/01/31 03:30:04;;;;;;;8.63;2.38;;;5.80;80.90;;;;;;6260567;28;20079;-83
2022/01/31 03:33:06;;;;;;;13.05;3.00;;;5.90;80.60;;;;;;6260004;28;20037;-84
2022/01/31 03:36:08;;;;;;;9.50;2.38;;;6.00;80.40;;;;;;6261606;28;20471;-84
2022/01/31 03:39:11;;;;;;;16.80;2.60;;;6.10;80.00;;;;;;6263686;28;20067;-83
2022/01/31 03:42:15;;;;;;;7.22;1.88;;;6.10;79.80;;;;;;6265829;28;20726;-83
2022/01/31 03:45:18;;;;;;;7.30;2.03;;;6.20;79.70;;;;;;6262142;28;20492;-83
2022/01/31 03:48:20;;;;;;;5.40;2.38;;;6.20;79.10;;;;;;6263868;28;20053;-83
2022/01/31 03:51:22;;;;;;;5.47;2.35;;;6.30;78.70;;;;;;6262851;28;20591;-83
2022/01/31 03:54:25;;;;;;;12.25;4.82;;;6.30;78.30;;;;;;6258519;28;20055;-84
2022/01/31 03:57:28;;;;;;;10.95;2.03;;;6.30;78.20;;;;;;6263699;28;20109;-83
2022/01/31 04:00:30;;;;;;;5.05;1.65;;;6.40;78.00;;;;;;6260931;28;20528;-82
2022/01/31 04:03:32;;;;;;;5.57;1.92;;;6.40;77.90;;;;;;6259335;28;20126;-84
2022/01/31 04:06:34;;;;;;;16.17;2.17;;;6.40;77.40;;;;;;6255906;28;20060;-83
2022/01/31 04:09:37;;;;;;;12.95;2.75;;;6.40;77.20;;;;;;6250858;28;20133;-83
2022/01/31 04:12:38;;;;;;;7.13;1.58;;;6.40;77.20;;;;;;6249747;28;20038;-83
2022/01/31 04:15:40;;;;;;;19.02;2.50;;;6.50;77.00;;;;;;6249768;28;20134;-83
2022/01/31 04:18:42;;;;;;;11.50;2.42;;;6.40;77.00;;;;;;6250340;28;20052;-83
2022/01/31 04:21:44;;;;;;;10.75;1.88;;;6.50;77.00;;;;;;6251086;28;20053;-83
2022/01/31 04:24:53;;;;;;;13.10;2.85;;;6.50;77.20;;;;;;6250274;28;20049;-83
2022/01/31 04:28:01;;;;;;;9.77;2.03;;;6.50;77.20;;;;;;6249788;28;20145;-83
2022/01/31 04:31:13;;;;;;;8.07;2.40;;;6.50;76.90;;;;;;6250749;28;20042;-82
2022/01/31 04:34:15;;;;;;;6.00;1.88;;;6.60;76.80;;;;;;6251321;28;20049;-82
2022/01/31 04:37:17;;;;;;;14.32;3.05;;;6.60;76.40;;;;;;6249991;28;20060;-83
2022/01/31 04:40:20;;;;;;;9.60;2.65;;;6.70;76.30;;;;;;6250602;28;20049;-82
2022/01/31 04:43:22;;;;;;;5.57;1.60;;;6.70;76.20;;;;;;6250947;28;20048;-82
2022/01/31 04:46:24;;;;;;;7.85;2.67;;;6.70;76.10;;;;;;6250880;28;20099;-83
2022/01/31 04:49:26;;;;;;;9.40;2.35;;;6.70;76.80;;;;;;6252925;28;20049;-84
2022/01/31 04:52:27;;;;;;;9.82;1.55;;;6.70;76.20;;;;;;6253583;28;20041;-82
2022/01/31 04:55:31;;;;;;;4.70;1.15;;;6.60;76.10;;;;;;6251207;28;20037;-83
2022/01/31 04:58:33;;;;;;;8.15;2.90;;;6.60;76.10;;;;;;6250839;28;20606;-84
2022/01/31 05:01:35;;;;;;;8.40;1.88;;;6.60;76.20;;;;;;6252628;28;20050;-84
2022/01/31 05:04:37;;;;;;;13.48;3.10;;;6.60;76.10;;;;;;6251789;28;20041;-84
2022/01/31 05:07:39;;;;;;;14.15;3.40;;;6.60;76.30;;;;;;6252019;28;20127;-83
2022/01/31 05:10:45;;;;;;;13.07;1.88;;;6.60;76.20;;;;;;6253052;28;21558;-82
2022/01/31 05:13:47;;;;;;;13.57;1.80;;;6.60;76.20;;;;;;6250796;28;20045;-84
2022/01/31 05:16:49;;;;;;;14.05;2.30;;;6.60;76.10;;;;;;6251044;28;20045;-84
2022/01/31 05:19:51;;;;;;;8.48;2.47;;;6.60;76.30;;;;;;6251471;28;20088;-84
2022/01/31 05:22:52;;;;;;;7.97;2.08;;;6.60;76.40;;;;;;6252041;28;20188;-83
2022/01/31 05:25:55;;;;;;;7.95;2.40;;;6.60;76.60;;;;;;6251848;28;20076;-83
2022/01/31 05:28:57;;;;;;;11.35;2.75;;;6.60;76.70;;;;;;6252063;28;20120;-83
2022/01/31 05:31:59;;;;;;;6.90;2.08;;;6.60;76.70;;;;;;6253313;28;20111;-84
2022/01/31 05:35:04;;;;;;;6.85;1.95;;;6.70;76.60;;;;;;6251998;28;20059;-83
2022/01/31 05:38:06;;;;;;;7.47;2.35;;;6.70;76.20;;;;;;6253308;28;20140;-83
2022/01/31 05:41:17;;;;;;;9.30;2.72;;;6.70;76.60;;;;;;6252328;28;20056;-84
2022/01/31 05:44:19;;;;;;;7.95;2.28;;;6.80;78.10;;;;;;6254316;28;20045;-84
2022/01/31 05:47:21;;;;;;;6.28;2.75;;;6.80;78.60;;;;;;6252378;28;20189;-85
2022/01/31 05:50:23;;;;;;;5.72;2.30;;;6.90;79.50;;;;;;6252546;28;20113;-84
2022/01/31 05:53:25;;;;;;;5.78;2.13;;;6.90;80.00;;;;;;6252831;28;20057;-84
2022/01/31 05:56:28;;;;;;;11.68;2.70;;;6.80;80.30;;;;;;6274199;28;20033;-83
2022/01/31 05:59:30;;;;;;;8.55;1.65;;;6.60;80.90;;;;;;6276485;28;20089;-85
2022/01/31 06:02:31;;;;;;;17.67;2.85;;;6.70;82.40;;;;;;6248262;28;20105;-85
2022/01/31 06:05:33;;;;;;;15.13;2.90;;;6.60;85.30;;;;;;6240622;28;20049;-84
2022/01/31 06:08:35;;;;;;;7.97;2.90;;;6.40;91.00;;;;;;6244596;28;20046;-84
2022/01/31 06:11:38;;;;;;;10.07;2.50;;;6.20;91.90;;;;;;6242503;28;20049;-83
2022/01/31 06:14:40;;;;;;;14.93;3.65;;;6.10;92.60;;;;;;6235247;28;20160;-85
2022/01/31 06:17:42;;;;;;;17.70;4.57;;;5.80;92.60;;;;;;6235186;28;20058;-85
2022/01/31 06:20:44;;;;;;;10.93;2.58;;;5.70;92.70;;;;;;6234921;28;20056;-84
2022/01/31 06:23:46;;;;;;;8.20;2.70;;;5.70;93.80;;;;;;6235482;28;20128;-84
2022/01/31 06:26:49;;;;;;;9.80;3.08;;;5.50;93.50;;;;;;6236521;28;20073;-81
2022/01/31 06:29:51;;;;;;;11.10;2.35;;;5.50;94.40;;;;;;6258923;28;20049;-81
2022/01/31 06:32:55;;;;;;;13.95;3.25;;;5.40;93.60;;;;;;6255325;28;20048;-81
2022/01/31 06:35:56;;;;;;;15.93;3.80;;;5.40;94.80;;;;;;6253358;28;20046;-80
2022/01/31 06:38:59;;;;;;;9.15;2.80;;;5.40;94.30;;;;;;6252508;28;20038;-82
2022/01/31 06:42:02;;;;;;;8.13;3.78;;;5.40;95.00;;;;;;6252512;28;20120;-81
2022/01/31 06:45:05;;;;;;;8.55;3.72;;;5.30;94.90;;;;;;6252670;28;20049;-80
2022/01/31 06:48:07;;;;;;;14.45;4.10;;;5.30;95.40;;;;;;6252790;28;20176;-81
2022/01/31 06:51:09;;;;;;;11.45;4.10;;;5.30;95.60;;;;;;6254612;28;20128;-81
2022/01/31 06:54:11;;;;;;;9.60;3.70;;;5.30;96.00;;;;;;6253553;28;20514;-81
2022/01/31 06:57:14;;;;;;;13.48;4.15;;;5.30;95.90;;;;;;6258141;28;20071;-81
2022/01/31 07:00:18;;;;;;;8.23;3.83;;;5.30;95.90;;;;;;6257790;28;20045;-81
2022/01/31 07:03:20;;;;;;;8.10;3.13;;;5.30;96.60;;;;;;6252486;28;20128;-80
2022/01/31 07:06:23;;;;;;;12.70;4.00;;;5.30;96.20;;;;;;6219429;23;20051;-79
2022/01/31 07:09:25;;;;;;;12.88;3.88;;;5.30;96.50;;;;;;6179227;28;20109;-79
2022/01/31 07:12:32;;;;;;;7.15;3.85;;;5.40;96.90;;;;;;6181651;28;20162;-78
2022/01/31 07:15:34;;;;;;;13.38;4.18;;;5.40;96.80;;;;;;6182603;28;20101;-78
2022/01/31 07:18:37;;;;;;;11.93;4.35;;;5.40;97.00;;;;;;6183037;28;20057;-78
2022/01/31 07:21:46;;;;;;;16.10;4.57;;;5.40;97.10;;;;;;6182305;28;20057;-78
2022/01/31 07:24:52;;;;;;;15.05;4.90;;;5.40;97.40;;;;;;6181960;28;20129;-78
2022/01/31 07:27:55;;;;;;;10.10;4.65;;;5.40;97.60;;;;;;6182482;28;20051;-78
2022/01/31 07:30:57;;;;;;;15.13;4.90;;;5.50;97.70;;;;;;6181361;28;20069;-78
2022/01/31 07:33:59;;;;;;;14.65;4.20;;;5.40;97.60;;;;;;6180336;28;20436;-79
2022/01/31 07:37:01;;;;;;;15.38;4.13;;;5.50;97.80;;;;;;6179833;28;20133;-78
2022/01/31 07:40:03;;;;;;;11.98;4.20;;;5.40;97.70;;;;;;6179253;28;20055;-78
2022/01/31 07:43:06;;;;;;;14.77;3.60;;;5.50;97.80;;;;;;6180253;28;20043;-78
2022/01/31 07:46:08;;;;;;;11.68;3.42;;;5.60;97.70;;;;;;6180687;28;20061;-78
2022/01/31 07:49:10;;;;;;;21.80;4.15;;;5.60;97.70;;;;;;6180373;28;20050;-78
2022/01/31 07:52:12;;;;;;;15.68;4.25;;;5.70;97.50;;;;;;6180350;28;20066;-80
2022/01/31 07:55:14;;;;;;;10.48;3.75;;;5.60;97.40;;;;;;6180363;28;20117;-78
2022/01/31 07:58:18;;;;;;;9.35;3.33;;;5.70;97.40;;;;;;6182466;28;20470;-78
2022/01/31 08:01:20;;;;;;;14.00;2.88;;;5.70;97.50;;;;;;6180498;28;20058;-77
2022/01/31 08:04:22;;;;;;;8.57;2.25;;;5.70;97.60;;;;;;6179497;28;20047;-78
2022/01/31 08:07:24;;;;;;;4.70;2.42;;;5.70;97.70;;;;;;6178946;28;20420;-78
2022/01/31 08:10:26;;;;;;;7.68;2.10;;;5.60;97.60;;;;;;6180075;28;20057;-77
2022/01/31 08:13:29;;;;;;;7.00;2.78;;;5.60;97.60;;;;;;6179568;28;20058;-78
2022/01/31 08:16:31;;;;;;;9.73;2.75;;;5.70;97.90;;;;;;6178953;28;20081;-78
2022/01/31 08:19:34;;;;;;;4.05;1.80;;;5.70;97.90;;;;;;6180458;28;20126;-78
2022/01/31 08:22:36;;;;;;;4.60;1.70;;;5.80;97.80;;;;;;6181144;28;20362;-78
2022/01/31 08:25:38;;;;;;;2.95;1.63;;;5.80;97.70;;;;;;6180920;28;20764;-78
2022/01/31 08:28:44;;;;;;;4.40;2.22;;;5.90;97.50;;;;;;6180326;28;20154;-78
2022/01/31 08:31:47;;;;;;;4.25;1.63;;;6.00;97.60;;;;;;6180735;28;20054;-78
2022/01/31 08:38:08;;;;;;;2.35;1.30;;;6.00;97.10;;;;;;6179989;28;20564;-78
2022/01/31 08:41:11;;;;;;;3.53;1.60;;;6.00;97.30;;;;;;6179375;28;20130;-78
2022/01/31 08:44:17;;;;;;;3.45;1.60;;;6.10;97.10;;;;;;6178401;28;20043;-77
2022/01/31 08:47:19;;;;;;;4.40;1.10;;;6.20;97.00;;;;;;6177806;28;20049;-77
2022/01/31 08:50:21;;;;;;;2.58;1.63;;;6.30;97.10;;;;;;6178847;28;20128;-77
2022/01/31 08:53:23;;;;;;;7.60;2.05;;;6.30;96.90;;;;;;6179029;28;20043;-77
2022/01/31 08:56:25;;;;;;;8.13;2.00;;;6.30;96.60;;;;;;6177889;28;20046;-77
2022/01/31 08:59:29;;;;;;;7.22;1.75;;;6.50;97.10;;;;;;6177302;28;20411;-77
2022/01/31 09:02:38;;;;;;;4.45;1.70;;;6.70;97.00;;;;;;6177410;28;20166;-77
2022/01/31 09:05:40;;;;;;;3.70;1.92;;;7.00;96.70;;;;;;6177301;28;20524;-77
2022/01/31 09:08:42;;;;;;;8.20;1.50;;;7.20;95.80;;;;;;6176937;28;20043;-77
2022/01/31 09:11:44;;;;;;;4.90;1.52;;;7.30;95.70;;;;;;6153049;28;20090;-77
2022/01/31 09:14:47;;;;;;;9.43;1.70;;;7.20;95.20;;;;;;6153165;28;20453;-77
2022/01/31 09:17:49;;;;;;;8.52;1.98;;;7.20;95.00;;;;;;6154262;28;20413;-77
2022/01/31 09:20:51;;;;;;;5.25;1.80;;;7.10;94.70;;;;;;6152068;28;20052;-77
2022/01/31 09:23:53;;;;;;;5.03;1.52;;;7.00;94.50;;;;;;6152235;28;20539;-77
2022/01/31 09:26:55;;;;;;;3.67;1.58;;;7.00;94.20;;;;;;6156506;28;20568;-78
2022/01/31 09:29:59;;;;;;;12.43;2.55;;;7.00;94.00;;;;;;6177492;28;20051;-78
2022/01/31 09:33:01;;;;;;;4.57;2.55;;;7.10;93.70;;;;;;6177469;28;20531;-78
2022/01/31 09:36:03;;;;;;;5.53;2.38;;;7.20;93.70;;;;;;6180102;28;20569;-79
2022/01/31 09:39:07;;;;;;;9.65;2.00;;;7.30;93.20;;;;;;6179313;28;20121;-78
2022/01/31 09:42:11;;;;;;;3.70;2.28;;;7.30;93.10;;;;;;6179926;28;20500;-78
2022/01/31 09:45:20;;;;;;;8.85;1.70;;;7.40;92.90;;;;;;6179183;28;20043;-78
2022/01/31 09:48:35;;;;;;;4.68;2.28;;;7.40;92.90;;;;;;6176585;28;20061;-78
2022/01/31 09:51:37;;;;;;;9.23;2.00;;;7.40;92.60;;;;;;6178179;28;20424;-78
2022/01/31 09:54:39;;;;;;;4.38;1.73;;;7.50;92.40;;;;;;6178785;28;20078;-78
2022/01/31 09:57:41;;;;;;;5.57;1.20;;;7.60;92.10;;;;;;6175216;28;20086;-78
2022/01/31 10:00:44;;;;;;;5.05;1.23;;;7.70;92.10;;;;;;6174688;28;20083;-77
2022/01/31 10:03:48;;;;;;;3.40;1.73;;;7.80;91.90;;;;;;6174380;28;20054;-78
2022/01/31 10:06:52;;;;;;;4.63;1.55;;;7.80;91.80;;;;;;6173919;28;20054;-78
2022/01/31 10:09:53;;;;;;;7.82;2.53;;;7.90;91.30;;;;;;6174812;28;20090;-77
2022/01/31 10:16:32;;;;;;;5.53;2.55;;;7.90;91.20;;;;;;6131031;28;20416;-77
2022/01/31 10:19:43;;;;;;;2.42;1.67;;;8.00;91.10;;;;;;6174183;28;20061;-77
2022/01/31 10:22:46;;;;;;;5.55;1.55;;;7.90;91.00;;;;;;6174153;28;20053;-77
2022/01/31 10:25:47;;;;;;;8.50;2.10;;;7.90;90.80;;;;;;6174335;28;20061;-77
2022/01/31 10:28:49;;;;;;;4.60;2.22;;;8.00;90.70;;;;;;6174080;28;20049;-77
2022/01/31 10:32:06;;;;;;;5.15;1.60;;;8.10;90.60;;;;;;6173669;28;20047;-77
2022/01/31 10:35:09;;;;;;;4.40;1.33;;;8.10;90.10;;;;;;6173679;28;20094;-77
2022/01/31 10:38:15;;;;;;;4.72;1.40;;;8.00;90.10;;;;;;6174407;28;20560;-77
2022/01/31 10:54:53;;;;;;;5.20;0.80;;;8.00;88.10;;;;;;6172129;28;20049;-77
2022/01/31 10:58:04;;;;;;;4.05;0.73;;;8.00;89.30;;;;;;6179067;28;20047;-77
2022/01/31 11:01:13;;;;;;;4.18;0.95;;;8.00;88.50;;;;;;6178455;28;20038;-77
2022/01/31 11:04:16;;;;;;;5.65;1.15;;;8.00;87.30;;;;;;6178719;28;20051;-77
2022/01/31 11:07:20;;;;;;;2.92;1.00;;;8.10;87.10;;;;;;6178306;28;20098;-77
2022/01/31 11:10:28;;;;;;;3.78;1.35;;;8.20;86.30;;;;;;6178964;28;20067;-78
2022/01/31 11:13:31;;;;;;;;;;;8.30;85.20;;;;;;6179387;28;20053;-77
2022/01/31 11:16:34;;;;;;;4.53;0.68;;;8.30;83.70;;;;;;6178108;28;19922;-77
2022/01/31 11:19:39;;;;;;;0.80;0.50;;;8.30;83.20;;;;;;6178003;28;20100;-77
2022/01/31 11:22:42;;;;;;;4.65;1.00;;;8.40;82.50;;;;;;6178709;28;20082;-77
2022/01/31 11:25:48;;;;;;;7.88;1.45;;;8.40;82.30;;;;;;6178422;28;20394;-77
2022/01/31 11:28:51;;;;;;;9.13;1.67;;;8.60;82.50;;;;;;6179785;28;20054;-79
2022/01/31 11:31:53;;;;;;;6.25;1.40;;;8.70;81.60;;;;;;6181754;28;20174;-79
2022/01/31 11:34:57;;;;;;;4.65;0.60;;;8.70;80.30;;;;;;6182652;28;20043;-79
2022/01/31 11:37:58;;;;;;;3.00;0.70;;;8.70;79.80;;;;;;6183087;28;20149;-79
2022/01/31 11:41:05;;;;;;;6.13;1.27;;;8.70;79.60;;;;;;6181760;28;20053;-79
2022/01/31 11:44:14;;;;;;;6.55;1.60;;;8.60;79.50;;;;;;6182579;28;20043;-79
2022/01/31 11:47:22;;;;;;;5.05;1.40;;;8.60;79.00;;;;;;6182617;28;20512;-79
2022/01/31 11:50:26;;;;;;;6.18;0.80;;;8.60;79.30;;;;;;6182641;28;20055;-79
2022/01/31 11:53:30;;;;;;;5.05;0.80;;;8.60;78.40;;;;;;6185600;28;20182;-79
2022/01/31 11:56:32;;;;;;;4.38;0.75;;;8.60;78.60;;;;;;6182093;28;20051;-79
2022/01/31 11:59:39;;;;;;;2.28;0.52;;;8.60;78.70;;;;;;6175559;28;20086;-79
2022/01/31 12:02:43;;;;;;;7.07;0.70;;;8.60;78.30;;;;;;6184785;28;20393;-78
2022/01/31 12:05:47;;;;;;;2.75;1.00;;;8.60;78.40;;;;;;6182815;28;20054;-79
2022/01/31 12:08:50;;;;;;;3.47;0.55;;;8.60;77.70;;;;;;6182532;28;20047;-79
2022/01/31 12:11:59;;;;;;;7.13;0.60;;;8.60;77.90;;;;;;6180862;28;20527;-79
2022/01/31 12:15:38;;;;;;;3.70;0.85;;;8.60;77.90;;;;;;6179710;28;20042;-79
2022/01/31 12:19:05;;;;;;;7.03;1.25;;;8.70;77.20;;;;;;6180683;28;20051;-79
2022/01/31 12:22:12;;;;;;;14.55;2.00;;;8.80;77.30;;;;;;6182226;28;20138;-79
2022/01/31 12:25:29;;;;;;;1.55;1.45;;;8.80;78.70;;;;;;6181755;28;20046;-80
2022/01/31 12:28:37;;;;;;;5.90;1.42;;;8.90;77.20;;;;;;6181955;28;20054;-82
2022/01/31 12:31:42;;;;;;;5.47;1.10;;;8.90;77.50;;;;;;6159538;28;20119;-83
2022/01/31 12:34:52;;;;;;;3.47;0.68;;;8.90;76.90;;;;;;6158037;28;20044;-79
2022/01/31 12:37:56;;;;;;;16.98;1.85;;;9.00;77.20;;;;;;6159255;28;20051;-79
2022/01/31 12:41:04;;;;;;;2.78;0.90;;;9.00;76.20;;;;;;6156762;28;20043;-79
2022/01/31 12:44:45;;;;;;;1.25;0.40;;;9.00;75.60;;;;;;6156831;28;20039;-79
2022/01/31 12:48:15;;;;;;;2.90;0.50;;;9.10;75.60;;;;;;6156525;28;20051;-79
2022/01/31 12:51:19;;;;;;;3.70;0.95;;;9.20;74.50;;;;;;6156199;28;20450;-79
2022/01/31 12:54:24;;;;;;;3.83;1.33;;;9.40;75.40;;;;;;6168901;28;20373;-79
2022/01/31 12:57:26;;;;;;;1.88;0.82;;;9.40;73.10;;;;;;6178228;28;20053;-80
2022/01/31 13:00:38;;;;;;;3.33;0.52;;;9.30;73.80;;;;;;6178409;28;20054;-79
2022/01/31 13:03:43;;;;;;;3.97;1.77;;;9.30;73.70;;;;;;6179018;28;20046;-80
2022/01/31 13:06:46;;;;;;;3.38;0.40;;;9.20;73.90;;;;;;6207178;23;20054;-81
2022/01/31 13:09:49;;;;;;;3.90;0.63;;;9.30;73.50;;;;;;6200437;28;20050;-81
2022/01/31 13:13:00;;;;;;;8.48;1.40;;;9.30;73.80;;;;;;6201395;28;20061;-81
2022/01/31 13:16:04;;;;;;;1.00;0.43;;;9.30;72.50;;;;;;6201228;28;20531;-80
2022/01/31 13:19:19;;;;;;;2.80;0.70;;;9.30;71.90;;;;;;6201831;28;20150;-81
2022/01/31 13:22:26;;;;;;;1.40;0.55;;;9.30;72.60;;;;;;6201162;28;20422;-80
2022/01/31 13:25:30;;;;;;;5.22;1.02;;;9.30;71.60;;;;;;6201019;28;20054;-81
2022/01/31 13:28:33;;;;;;;2.40;1.08;;;9.40;72.30;;;;;;6200587;28;20050;-81
2022/01/31 13:31:41;;;;;;;4.25;2.40;;;9.50;71.30;;;;;;6176606;28;20110;-82
2022/01/31 13:34:44;;;;;;;35.08;19.95;;;9.60;70.90;;;;;;6177010;28;20051;-81
2022/01/31 13:37:51;;;;;;;52.15;29.67;;;9.50;70.20;;;;;;6177359;28;20057;-82
2022/01/31 13:40:57;;;;;;;43.03;22.65;;;9.50;69.90;;;;;;6177259;28;20058;-82
2022/01/31 13:44:03;;;;;;;42.55;22.58;;;9.50;70.40;;;;;;6176784;28;20405;-81
2022/01/31 13:47:05;;;;;;;33.97;17.95;;;9.50;70.50;;;;;;6178797;28;20043;-80
2022/01/31 13:50:23;;;;;;;26.58;15.30;;;9.50;70.60;;;;;;6198123;28;20173;-80
2022/01/31 13:53:33;;;;;;;12.57;4.90;;;9.50;69.80;;;;;;6188809;28;20050;-80
2022/01/31 13:56:36;;;;;;;6.78;2.40;;;9.40;69.90;;;;;;6177692;28;20835;-84
2022/01/31 13:59:38;;;;;;;5.93;2.22;;;9.40;69.10;;;;;;6192195;28;20051;-82
2022/01/31 14:02:40;;;;;;;2.65;1.02;;;9.50;71.00;;;;;;6174359;28;20139;-82
2022/01/31 14:05:54;;;;;;;7.18;1.38;;;9.40;69.80;;;;;;6153267;28;20661;-82
2022/01/31 14:09:00;;;;;;;5.10;1.15;;;9.40;68.70;;;;;;6169641;28;20054;-82
2022/01/31 14:12:05;;;;;;;5.70;1.40;;;9.30;68.40;;;;;;6176709;28;20497;-81
2022/01/31 14:15:07;;;;;;;5.28;0.70;;;9.20;68.60;;;;;;6191425;28;20125;-82
2022/01/31 14:18:10;;;;;;;4.47;1.23;;;9.20;69.60;;;;;;6172277;28;20054;-81
2022/01/31 14:21:12;;;;;;;11.48;2.58;;;9.20;70.50;;;;;;6152206;28;20424;-83
2022/01/31 14:24:17;;;;;;;8.13;3.13;;;9.20;69.50;;;;;;6152725;28;20050;-82
2022/01/31 14:27:22;;;;;;;11.50;4.13;;;9.20;69.20;;;;;;6158654;28;20042;-83
2022/01/31 14:30:25;;;;;;;7.07;1.30;;;9.20;70.30;;;;;;6176273;28;20186;-81
2022/01/31 14:33:27;;;;;;;7.38;3.65;;;9.20;69.10;;;;;;6176491;28;20425;-82
2022/01/31 14:36:35;;;;;;;5.68;1.25;;;9.20;70.10;;;;;;6176972;28;20054;-83
2022/01/31 14:39:48;;;;;;;4.20;0.60;;;9.20;69.00;;;;;;6177978;28;20054;-82
2022/01/31 14:43:10;;;;;;;11.93;2.10;;;9.20;69.30;;;;;;6177252;28;20053;-82
2022/01/31 14:49:33;;;;;;;5.57;1.42;;;9.20;69.40;;;;;;6179864;28;20046;-84
2022/01/31 14:52:35;;;;;;;5.35;0.90;;;9.10;68.50;;;;;;6177823;28;20057;-84
2022/01/31 14:55:39;;;;;;;5.30;0.98;;;9.00;68.20;;;;;;6189356;28;20046;-85
2022/01/31 14:58:42;;;;;;;27.00;11.10;;;9.00;69.10;;;;;;6201658;28;20106;-83
2022/01/31 15:01:44;;;;;;;31.45;17.48;;;9.00;69.50;;;;;;6199721;28;20105;-82
2022/01/31 15:04:46;;;;;;;6.55;1.92;;;9.10;70.90;;;;;;6200112;28;20043;-82
2022/01/31 15:07:48;;;;;;;5.50;1.52;;;9.10;71.10;;;;;;6200916;28;20054;-82
2022/01/31 15:10:50;;;;;;;10.32;2.28;;;9.10;70.00;;;;;;6201175;28;20121;-84
2022/01/31 15:13:55;;;;;;;6.20;1.58;;;9.00;70.80;;;;;;6201907;28;20546;-82
2022/01/31 15:16:57;;;;;;;5.03;0.75;;;8.90;70.00;;;;;;6200443;28;20050;-82
2022/01/31 15:19:59;;;;;;;7.32;0.70;;;8.90;69.60;;;;;;6201191;28;20046;-83
2022/01/31 15:23:01;;;;;;;3.95;0.57;;;8.80;69.50;;;;;;6199783;28;20165;-83
2022/01/31 15:26:03;;;;;;;12.07;2.65;;;8.80;69.90;;;;;;6209129;28;20047;-82
2022/01/31 15:29:06;;;;;;;4.75;0.68;;;8.70;70.30;;;;;;6200680;28;20481;-82
2022/01/31 15:32:09;;;;;;;5.65;1.30;;;8.70;70.10;;;;;;6200366;28;20105;-81
2022/01/31 15:35:10;;;;;;;5.10;0.95;;;8.70;70.00;;;;;;6205006;28;20575;-81
2022/01/31 15:38:13;;;;;;;5.22;1.00;;;8.70;71.40;;;;;;6206070;28;20064;-81
2022/01/31 15:41:16;;;;;;;5.82;1.65;;;8.70;70.70;;;;;;6206060;28;20440;-81
2022/01/31 15:44:26;;;;;;;1.25;0.55;;;8.70;71.90;;;;;;6206047;28;20057;-81
2022/01/31 15:47:28;;;;;;;21.95;10.45;;;8.60;70.50;;;;;;6206079;28;20117;-82
2022/01/31 15:50:29;;;;;;;12.38;5.72;;;8.50;70.20;;;;;;6205707;28;20058;-81
2022/01/31 15:53:31;;;;;;;5.05;1.35;;;8.50;71.80;;;;;;6205553;28;20046;-82
2022/01/31 15:56:33;;;;;;;5.95;2.35;;;8.50;72.70;;;;;;6205851;28;20050;-82
2022/01/31 15:59:36;;;;;;;9.70;1.80;;;8.50;72.40;;;;;;6197732;28;20056;-81
2022/01/31 16:02:40;;;;;;;5.15;1.33;;;8.50;72.90;;;;;;6204096;28;20050;-82
2022/01/31 16:05:42;;;;;;;7.88;2.58;;;8.50;73.70;;;;;;6204203;28;20057;-81
2022/01/31 16:08:44;;;;;;;12.38;3.40;;;8.40;74.00;;;;;;6204139;28;20126;-81
2022/01/31 16:11:52;;;;;;;10.70;1.42;;;8.40;74.50;;;;;;6205510;28;20078;-82
2022/01/31 16:14:55;;;;;;;;;;;8.30;73.80;;;;;;6206411;28;20141;-83
2022/01/31 16:17:57;;;;;;;7.28;3.70;;;8.30;74.80;;;;;;6206070;28;20064;-85
2022/01/31 16:20:59;;;;;;;5.70;2.08;;;8.30;73.80;;;;;;6210852;28;20409;-84
2022/01/31 16:24:00;;;;;;;6.53;1.05;;;8.20;75.00;;;;;;6209508;28;20061;-84
2022/01/31 16:27:02;;;;;;;7.25;1.30;;;8.10;75.80;;;;;;6207804;28;20070;-83
2022/01/31 16:30:07;;;;;;;2.55;1.00;;;8.10;74.70;;;;;;6207915;28;20056;-82